This is the latest recevied weather packets stored in our database for station/object AJ4FJ-13. If no packets are shown the sender has not sent any weather packets the latest 10 day(s).
| Time | Temp. | Humidity | Pressure | Rain* | Wind** | Luminosity | Snow |
|---|---|---|---|---|---|---|---|
| 1777953180 | 11.67° C | 89% | 1014 hPa | 0 mm | 0 m/s | - | - |
| 1777948654 | 13.33° C | 81% | 1015 hPa | 0 mm | 0 m/s | - | - |
| 1777946844 | 15° C | 76% | 1015 hPa | 0 mm | 0 m/s | - | - |
| 1777946542 | 15° C | 77% | 1015 hPa | 0 mm | 0 m/s | - | - |
| 1777945033 | 16.11° C | 69% | 1015 hPa | 0 mm | 0 m/s | - | - |
| 1777944429 | 17.22° C | 66% | 1015 hPa | 0 mm | 0 m/s | - | - |
| 1777942618 | 19.44° C | 54% | 1015 hPa | 0 mm | 0 m/s | - | - |
| 1777941712 | 21.67° C | 47% | 1015 hPa | 0 mm | 0 m/s | - | - |
| 1777940503 | 25° C | 41% | 1015 hPa | 0 mm | 0 m/s | - | - |
| 1777938690 | 29.44° C | 32% | 1016 hPa | 0 mm | 0 m/s | - | - |
| 1777938086 | 31.11° C | 31% | 1016 hPa | 0 mm | 0 m/s | - | - |
| 1777929906 | 28.33° C | 30% | 1016 hPa | 0 mm | 2.24 m/s, 311° | - | - |
| 1777928083 | 28.33° C | 31% | 1016 hPa | 0 mm | 2.68 m/s, 303° | - | - |
| 1777927478 | 28.89° C | 30% | 1016 hPa | 0 mm | 1.79 m/s, 308° | - | - |
| 1777923842 | 28.33° C | 34% | 1017 hPa | 0 mm | 2.68 m/s, 308° | - | - |
| 1777923540 | 28.33° C | 35% | 1017 hPa | 0 mm | 0 m/s | - | - |
| 1777922930 | 27.78° C | 33% | 1017 hPa | 0 mm | 1.79 m/s, 316° | - | - |
| 1777922627 | 27.78° C | 34% | 1017 hPa | 0 mm | 1.79 m/s, 231° | - | - |
| 1777919600 | 27.22° C | 35% | 1018 hPa | 0 mm | 2.68 m/s, 218° | - | - |
| 1777918694 | 26.11° C | 40% | 1018 hPa | 0 mm | 1.79 m/s, 208° | - | - |
| 1777917782 | 26.11° C | 38% | 1018 hPa | 0 mm | 0 m/s | - | - |
| 1777917480 | 26.11° C | 36% | 1018 hPa | 0 mm | 1.34 m/s, 121° | - | - |
| 1777915352 | 24.44° C | 39% | 1018 hPa | 0 mm | 3.58 m/s, 299° | - | - |
| 1777915048 | 24.44° C | 39% | 1018 hPa | 0 mm | 1.79 m/s, 351° | - | - |
| 1777908996 | 21.67° C | 46% | 1018 hPa | 0 mm | 3.13 m/s, 282° | - | - |
* Rain latest hour (hover to see other rain measurements)
** Current wind speed in m/s (hover to see current wind gust speed)